createdAt,value
2022-08-19T00:04:21.869Z,7.9
2022-08-19T00:19:31.994Z,8.7
2022-08-19T00:34:41.000Z,7.2
2022-08-19T00:49:50.116Z,8.3
2022-08-19T01:05:00.125Z,7.7
2022-08-19T01:20:12.447Z,8.1
2022-08-19T01:35:21.767Z,7.9
2022-08-19T01:50:31.387Z,7.3
2022-08-19T02:05:40.212Z,7.9
2022-08-19T02:20:49.458Z,8.4
2022-08-19T02:35:58.411Z,8.7
2022-08-19T02:51:09.933Z,9
2022-08-19T03:06:19.099Z,8.5
2022-08-19T03:21:28.612Z,8.4
2022-08-19T03:36:37.786Z,8.4
2022-08-19T03:51:46.963Z,9.3
2022-08-19T04:06:56.453Z,10.3
2022-08-19T04:22:05.633Z,9.3
2022-08-19T04:37:14.778Z,9.5
2022-08-19T04:52:23.835Z,9.5
2022-08-19T05:07:34.648Z,12.1
2022-08-19T05:22:44.213Z,11.9
2022-08-19T05:37:59.261Z,11.1
2022-08-19T05:53:12.205Z,12.6
2022-08-19T06:08:35.079Z,13.8
2022-08-19T06:23:44.743Z,17.1
2022-08-19T06:38:54.515Z,15
2022-08-19T06:54:04.043Z,15.6
2022-08-19T07:09:13.677Z,15.4
2022-08-19T07:24:23.099Z,12.9
2022-08-19T07:39:32.929Z,15
2022-08-19T07:54:42.802Z,11.9
2022-08-19T08:09:52.694Z,13.6
2022-08-19T08:25:06.845Z,12.8
2022-08-19T08:40:16.747Z,12.1
2022-08-19T08:55:37.376Z,12.5
2022-08-19T09:10:47.114Z,10.3
2022-08-19T09:26:04.875Z,8.4
2022-08-19T09:41:14.427Z,6.3
2022-08-19T09:56:24.760Z,5.4
2022-08-19T10:11:45.274Z,3.9
2022-08-19T10:27:05.110Z,4.3
2022-08-19T10:42:14.831Z,4.7
2022-08-19T10:58:02.063Z,5.2
2022-08-19T11:13:12.913Z,2.7
2022-08-19T11:28:23.178Z,3.3
2022-08-19T11:43:37.860Z,3.3
2022-08-19T11:58:47.722Z,3
2022-08-19T12:13:57.438Z,3.2
2022-08-19T12:29:07.827Z,2
2022-08-19T12:44:19.457Z,2.8
2022-08-19T12:59:42.879Z,1.9
2022-08-19T13:14:52.861Z,2.4
2022-08-19T13:30:03.052Z,2.4
2022-08-19T13:45:13.123Z,1.7
2022-08-19T14:00:22.715Z,1.8
2022-08-19T14:15:32.318Z,2.2
2022-08-19T14:30:41.679Z,2.4
2022-08-19T14:45:52.943Z,1.9
2022-08-19T15:01:02.152Z,2.2
2022-08-19T15:16:18.630Z,2.1
2022-08-19T15:31:29.293Z,1.5
2022-08-19T15:46:38.770Z,2
2022-08-19T16:01:49.583Z,5.9
2022-08-19T16:16:58.137Z,1.4
2022-08-19T16:32:06.577Z,1.7
2022-08-19T16:47:15.276Z,1.8
2022-08-19T17:02:30.396Z,1.6
2022-08-19T17:17:40.160Z,1.4
2022-08-19T17:32:48.771Z,1.9
2022-08-19T17:47:57.494Z,2.3
2022-08-19T18:03:06.878Z,1.6
2022-08-19T18:18:15.887Z,1.9
2022-08-19T18:33:25.035Z,1.6
2022-08-19T18:48:34.360Z,1.9
2022-08-19T19:03:43.783Z,3.3
2022-08-19T19:18:53.306Z,1.9
2022-08-19T19:34:02.307Z,2.2
2022-08-19T19:49:12.853Z,2.1
2022-08-19T20:04:21.916Z,2
2022-08-19T20:19:31.625Z,2.6
2022-08-19T20:34:41.161Z,1.9
2022-08-19T20:49:50.526Z,1.8
2022-08-19T21:05:00.541Z,2.2
2022-08-19T21:20:13.299Z,3.4
2022-08-19T21:35:22.019Z,3.3
2022-08-19T21:50:31.087Z,2.5
2022-08-19T22:05:40.345Z,3
2022-08-19T22:20:49.316Z,2.3
2022-08-19T22:38:40.493Z,3
2022-08-19T22:53:50.954Z,3
2022-08-19T23:08:59.993Z,4
2022-08-19T23:24:09.279Z,3.7
2022-08-19T23:39:18.165Z,4.1
2022-08-19T23:54:44.095Z,3.8
